createdAt,value
2018-03-18T00:00:28.232Z,16.90
2018-03-18T00:02:59.595Z,17.00
2018-03-18T00:05:30.012Z,16.90
2018-03-18T00:08:00.456Z,17.10
2018-03-18T00:10:30.979Z,17.20
2018-03-18T00:13:01.411Z,17.00
2018-03-18T00:15:31.777Z,17.60
2018-03-18T00:18:02.916Z,17.20
2018-03-18T00:20:34.092Z,17.20
2018-03-18T00:23:04.884Z,17.20
2018-03-18T00:25:35.255Z,17.30
2018-03-18T00:28:05.657Z,17.30
2018-03-18T00:30:36.883Z,17.20
2018-03-18T00:33:07.548Z,17.20
2018-03-18T00:35:37.923Z,17.00
2018-03-18T00:38:08.331Z,16.90
2018-03-18T00:40:40.281Z,16.00
2018-03-18T00:43:11.486Z,16.30
2018-03-18T00:45:42.656Z,16.00
2018-03-18T00:48:13.146Z,15.90
2018-03-18T00:50:43.542Z,15.80
2018-03-18T00:53:25.912Z,15.70
2018-03-18T00:55:56.313Z,15.60
2018-03-18T00:58:26.725Z,15.50
2018-03-18T01:00:57.096Z,15.80
2018-03-18T01:03:27.512Z,15.40
2018-03-18T01:05:58.675Z,14.90
2018-03-18T01:08:29.068Z,14.90
2018-03-18T01:10:59.448Z,14.80
2018-03-18T01:13:29.820Z,14.90
2018-03-18T01:16:00.200Z,14.90
2018-03-18T01:21:07.806Z,14.40
2018-03-18T01:23:38.503Z,14.40
2018-03-18T01:26:09.668Z,14.60
2018-03-18T01:28:40.122Z,14.60
2018-03-18T01:31:10.766Z,14.40
2018-03-18T01:33:41.195Z,14.60
2018-03-18T01:36:11.601Z,14.30
2018-03-18T01:38:42.103Z,14.30
2018-03-18T01:41:12.468Z,14.50
2018-03-18T01:43:42.901Z,14.40
2018-03-18T01:46:13.286Z,14.30
2018-03-18T01:48:43.688Z,14.40
2018-03-18T01:51:14.129Z,14.20
2018-03-18T01:53:45.266Z,13.90
2018-03-18T01:56:16.416Z,14.10
2018-03-18T01:58:49.286Z,13.80
2018-03-18T02:01:19.644Z,13.80
2018-03-18T02:03:50.064Z,13.80
2018-03-18T02:06:20.519Z,13.80
2018-03-18T02:08:50.950Z,13.90
2018-03-18T02:11:22.164Z,13.50
2018-03-18T02:13:53.357Z,13.60
2018-03-18T02:16:23.728Z,13.60
2018-03-18T02:18:54.887Z,13.60
2018-03-18T02:21:25.861Z,13.60
2018-03-18T02:23:56.600Z,13.40
2018-03-18T02:26:27.003Z,13.40
2018-03-18T02:28:58.143Z,13.50
2018-03-18T02:31:29.309Z,13.40
2018-03-18T02:33:59.720Z,13.40
2018-03-18T02:36:30.874Z,13.50
2018-03-18T02:39:01.263Z,13.40
2018-03-18T02:41:31.756Z,13.30
2018-03-18T02:44:02.153Z,13.50
2018-03-18T02:46:32.540Z,13.40
2018-03-18T02:49:03.092Z,13.60
2018-03-18T02:51:34.281Z,13.30
2018-03-18T02:54:04.703Z,13.30
2018-03-18T02:56:35.080Z,13.30
2018-03-18T02:59:05.464Z,13.30
2018-03-18T03:01:35.833Z,13.30
2018-03-18T03:04:06.220Z,13.00
2018-03-18T03:06:36.659Z,13.10
2018-03-18T03:09:07.537Z,13.30
2018-03-18T03:11:38.684Z,13.10
2018-03-18T03:14:10.391Z,13.00
2018-03-18T03:16:40.760Z,13.00
2018-03-18T03:19:11.908Z,12.90
2018-03-18T03:21:43.105Z,12.90
2018-03-18T03:24:13.801Z,12.80
2018-03-18T03:26:44.965Z,12.80
2018-03-18T03:29:15.331Z,12.70
2018-03-18T03:31:45.774Z,12.60
2018-03-18T03:34:16.151Z,12.60
2018-03-18T03:36:46.565Z,12.50
2018-03-18T03:39:16.968Z,12.50
2018-03-18T03:41:48.160Z,12.80
2018-03-18T03:44:18.560Z,12.40
2018-03-18T03:46:48.941Z,12.50
2018-03-18T03:49:19.370Z,12.60
2018-03-18T03:51:50.566Z,12.80
2018-03-18T03:54:20.993Z,12.80
2018-03-18T03:56:51.405Z,12.80
2018-03-18T03:59:22.563Z,12.50
2018-03-18T04:01:53.148Z,12.50
2018-03-18T04:04:23.549Z,12.50
2018-03-18T04:06:54.009Z,12.80
2018-03-18T04:09:24.460Z,12.50
2018-03-18T04:11:55.672Z,12.10
2018-03-18T04:14:26.179Z,12.10
2018-03-18T04:16:57.544Z,12.10
2018-03-18T04:19:27.901Z,12.00
2018-03-18T04:22:00.012Z,11.90
2018-03-18T04:24:30.805Z,11.80
2018-03-18T04:27:02.080Z,11.60
2018-03-18T04:29:32.496Z,11.60
2018-03-18T04:32:03.675Z,11.50
2018-03-18T04:34:34.065Z,11.50
2018-03-18T04:37:05.200Z,11.20
2018-03-18T04:39:36.381Z,11.10
2018-03-18T04:42:06.752Z,11.10
2018-03-18T04:44:37.164Z,11.10
2018-03-18T04:47:07.552Z,10.90
2018-03-18T04:49:37.967Z,10.80
2018-03-18T04:52:08.440Z,10.90
2018-03-18T04:54:40.256Z,10.80
2018-03-18T04:57:10.664Z,10.80
2018-03-18T04:59:41.890Z,10.40
2018-03-18T05:02:12.260Z,10.40
2018-03-18T05:04:42.728Z,10.70
2018-03-18T05:07:13.144Z,10.50
2018-03-18T05:09:43.626Z,10.70
2018-03-18T05:12:14.844Z,10.40
2018-03-18T05:14:45.240Z,10.40
2018-03-18T05:17:15.608Z,10.20
2018-03-18T05:19:46.024Z,10.00
2018-03-18T05:22:16.398Z,10.00
2018-03-18T05:24:47.144Z,9.90
2018-03-18T05:27:17.529Z,9.90
2018-03-18T05:29:48.768Z,10.20
2018-03-18T05:32:19.719Z,10.00
2018-03-18T05:34:52.676Z,9.70
2018-03-18T05:37:23.083Z,9.70
2018-03-18T05:39:53.520Z,9.50
2018-03-18T05:45:00.065Z,9.90
2018-03-18T05:47:30.453Z,9.70
2018-03-18T05:50:01.009Z,9.70
2018-03-18T05:52:32.164Z,9.60
2018-03-18T05:55:03.452Z,9.40
2018-03-18T05:57:33.875Z,9.40
2018-03-18T06:00:04.284Z,9.50
2018-03-18T06:02:34.672Z,9.30
2018-03-18T06:05:05.083Z,9.40
2018-03-18T16:26:08.972Z,11.10
2018-03-18T16:28:39.351Z,11.10
2018-03-18T16:31:12.343Z,11.00
2018-03-18T16:33:43.476Z,11.40
2018-03-18T16:36:13.901Z,11.60
2018-03-18T16:38:44.284Z,11.60
2018-03-18T16:41:14.724Z,11.50
2018-03-18T16:43:45.189Z,11.70
2018-03-18T16:46:16.048Z,11.70
2018-03-18T16:48:47.210Z,11.60
2018-03-18T16:51:17.692Z,11.50
2018-03-18T16:53:48.756Z,11.30
2018-03-18T16:56:19.939Z,11.90
2018-03-18T16:58:50.392Z,11.50
2018-03-18T17:01:20.803Z,11.50
2018-03-18T17:03:51.388Z,11.10
2018-03-18T17:06:21.794Z,11.10
2018-03-18T17:08:52.240Z,11.20
2018-03-18T17:11:23.552Z,11.30
2018-03-18T17:13:54.803Z,11.40
2018-03-18T17:16:25.280Z,11.30
2018-03-18T17:18:56.453Z,11.60
2018-03-18T17:21:26.875Z,11.60
2018-03-18T17:23:57.380Z,11.40
2018-03-18T17:26:28.868Z,11.50
2018-03-18T17:28:59.252Z,11.50
2018-03-18T17:31:30.421Z,12.00
2018-03-18T17:34:00.812Z,12.00
2018-03-18T17:36:31.292Z,12.00
2018-03-18T17:39:01.718Z,11.90
2018-03-18T17:41:32.151Z,11.90
2018-03-18T17:44:02.564Z,12.00
2018-03-18T17:49:45.728Z,12.20
2018-03-18T17:53:27.253Z,12.10
2018-03-18T17:56:05.997Z,12.20
2018-03-18T17:58:37.297Z,11.60
2018-03-18T18:01:07.825Z,11.60
2018-03-18T18:03:38.223Z,11.20
2018-03-18T18:06:08.609Z,11.90
2018-03-18T18:08:39.084Z,12.30
2018-03-18T18:11:09.481Z,12.30
2018-03-18T18:13:40.659Z,11.80
2018-03-18T18:16:11.200Z,11.80
2018-03-18T18:18:41.895Z,11.70
2018-03-18T18:21:13.052Z,12.30
2018-03-18T18:23:43.424Z,12.30
2018-03-18T18:26:13.839Z,12.30
2018-03-18T18:28:44.597Z,12.20
2018-03-18T18:31:15.938Z,12.20
2018-03-18T18:33:46.411Z,12.50
2018-03-18T18:36:17.570Z,12.60
2018-03-18T18:38:47.912Z,12.60
2018-03-18T18:41:18.484Z,12.60
2018-03-18T18:43:48.960Z,12.40
2018-03-18T18:46:19.736Z,12.70
2018-03-18T18:48:50.666Z,12.60
2018-03-18T18:51:21.218Z,12.20
2018-03-18T18:53:51.857Z,11.80
2018-03-18T18:56:23.260Z,12.20
2018-03-18T18:58:53.604Z,12.20
2018-03-18T19:01:24.215Z,11.80
2018-03-18T19:03:54.664Z,11.70
2018-03-18T19:06:25.065Z,12.00
2018-03-18T19:08:55.473Z,12.30
2018-03-18T19:11:25.940Z,12.30
2018-03-18T19:13:56.365Z,12.20
2018-03-18T19:16:26.757Z,12.10
2018-03-18T19:18:57.280Z,12.00
2018-03-18T19:21:27.728Z,11.70
2018-03-18T19:23:58.240Z,12.10
2018-03-18T19:26:28.668Z,11.70
2018-03-18T19:28:59.380Z,12.20
2018-03-18T19:31:30.518Z,12.00
2018-03-18T19:34:01.779Z,12.00
2018-03-18T19:36:32.644Z,11.90
2018-03-18T19:39:03.500Z,12.40
2018-03-18T19:41:34.320Z,11.80
2018-03-18T19:44:05.084Z,11.60
2018-03-18T19:46:35.684Z,11.40
2018-03-18T19:49:06.480Z,11.20
2018-03-18T19:51:36.908Z,11.10
2018-03-18T19:54:08.329Z,11.40
2018-03-18T19:56:39.541Z,11.00
2018-03-18T19:59:09.985Z,11.10
2018-03-18T20:01:40.492Z,10.70
2018-03-18T20:04:10.859Z,11.10
2018-03-18T20:06:41.365Z,11.20
2018-03-18T20:09:11.924Z,11.50
2018-03-18T20:11:42.379Z,11.50
2018-03-18T20:14:13.745Z,11.80
2018-03-18T20:16:44.250Z,11.80
2018-03-18T20:19:15.144Z,11.90
2018-03-18T20:21:45.538Z,11.90
2018-03-18T20:24:16.295Z,11.90
2018-03-18T20:26:49.995Z,12.00
2018-03-18T20:29:20.761Z,11.80
2018-03-18T20:31:52.063Z,12.00
2018-03-18T20:37:04.588Z,12.10
2018-03-18T20:39:35.425Z,12.10
2018-03-18T20:42:06.060Z,12.10
2018-03-18T20:44:36.412Z,12.20
2018-03-18T20:47:07.140Z,12.30
2018-03-18T20:49:37.568Z,12.30
2018-03-18T20:52:08.120Z,12.30
2018-03-18T20:54:38.576Z,12.50
2018-03-18T20:57:09.039Z,12.40
2018-03-18T20:59:39.408Z,12.40
2018-03-18T21:02:09.808Z,12.40
2018-03-18T21:04:40.277Z,12.50
2018-03-18T21:07:10.772Z,12.30
2018-03-18T21:09:41.132Z,12.40
2018-03-18T21:12:11.561Z,12.50
2018-03-18T21:14:41.989Z,12.50
2018-03-18T21:17:12.360Z,12.50
2018-03-18T21:19:42.712Z,12.50
2018-03-18T21:22:13.148Z,12.40
2018-03-18T21:24:43.517Z,12.40
2018-03-18T21:27:14.681Z,12.20
2018-03-18T21:29:45.384Z,12.20
2018-03-18T21:32:16.513Z,12.40
2018-03-18T21:34:46.868Z,12.40
2018-03-18T21:37:18.249Z,12.50
2018-03-18T21:39:48.620Z,12.50
2018-03-18T21:42:18.976Z,12.50
2018-03-18T21:44:49.388Z,12.60
2018-03-18T21:47:20.529Z,13.10
2018-03-18T21:49:51.099Z,13.10
2018-03-18T21:52:21.516Z,13.10
2018-03-18T21:54:51.892Z,13.30
2018-03-18T21:57:22.432Z,13.20
2018-03-18T21:59:52.776Z,13.60
2018-03-18T22:02:23.917Z,13.50
2018-03-18T22:04:55.024Z,14.00
2018-03-18T22:07:25.440Z,14.00
2018-03-18T22:09:55.841Z,14.40
2018-03-18T22:12:26.209Z,14.10
2018-03-18T22:14:56.608Z,14.50
2018-03-18T22:17:26.989Z,14.20
2018-03-18T22:19:58.220Z,14.30
2018-03-18T22:22:28.680Z,14.40
2018-03-18T22:24:59.126Z,14.40
2018-03-18T22:27:29.576Z,14.80
2018-03-18T22:30:00.319Z,14.70
2018-03-18T22:32:30.688Z,14.80
2018-03-18T22:35:01.788Z,15.00
2018-03-18T22:37:32.152Z,15.00
2018-03-18T22:40:03.264Z,14.90
2018-03-18T22:42:33.649Z,14.90
2018-03-18T22:45:04.025Z,14.80
2018-03-18T22:47:34.499Z,15.30
2018-03-18T22:50:05.627Z,15.10
2018-03-18T22:52:36.003Z,15.40
2018-03-18T22:55:06.384Z,15.10
2018-03-18T22:57:36.769Z,15.80
2018-03-18T23:00:07.697Z,15.30
2018-03-18T23:02:38.072Z,15.20
2018-03-18T23:05:08.412Z,15.40
2018-03-18T23:07:38.951Z,15.40
2018-03-18T23:10:10.363Z,15.30
2018-03-18T23:12:41.533Z,15.00
2018-03-18T23:15:11.893Z,15.00
2018-03-18T23:17:42.343Z,15.60
2018-03-18T23:20:12.725Z,15.10
2018-03-18T23:22:43.116Z,15.00
2018-03-18T23:25:13.516Z,15.00
2018-03-18T23:27:43.931Z,15.10
2018-03-18T23:30:14.600Z,15.30
2018-03-18T23:32:45.742Z,15.10
2018-03-18T23:35:16.870Z,14.70
2018-03-18T23:37:47.320Z,14.70
2018-03-18T23:40:18.462Z,14.90
2018-03-18T23:42:49.612Z,15.10
2018-03-18T23:45:20.756Z,14.40
2018-03-18T23:47:51.900Z,14.50
2018-03-18T23:50:23.047Z,15.00
2018-03-18T23:52:54.216Z,14.30
2018-03-18T23:55:24.680Z,14.30
2018-03-18T23:57:55.512Z,14.00
